PRMRV SBIZ-SBSI
Flight info
| Callsign | PRMRV |
|---|---|
| Flight time | 3h 22m |
| Altitude | 12000 |
| Route | KOVTI DCT NUXOD UL540 VUGAR DCT KONKI DCT LOKEL DCT PUKUT |
| Aircraft | S22T/L-SDGRY/S |
Departure
| Time | 2026-04-29 20:43 |
|---|---|
| Airport | Prefeito Renato Moreira Airport (SBIZ) |
Arrival
| Time | 2026-04-30 00:05 |
|---|---|
| Airport | Presidente João Batista Figueiredo Airport (SBSI) |
| Time | Latitude | Longitude | Altitude | Speed | Heading |
|---|---|---|---|---|---|
| 2026-04-29 20:25 | -5.53327 | -47.45861 | 413 ft | 0 kts | 56° |
| 2026-04-29 20:35 | -5.53327 | -47.45860 | 413 ft | 1 kts | 53° |
| 2026-04-29 20:35 | -5.53324 | -47.45858 | 413 ft | 0 kts | 14° |
| 2026-04-29 20:35 | -5.53313 | -47.45859 | 409 ft | 0 kts | 26° |
| 2026-04-29 20:36 | -5.53297 | -47.45841 | 410 ft | 7 kts | 55° |
| 2026-04-29 20:36 | -5.53259 | -47.45787 | 412 ft | 12 kts | 54° |
| 2026-04-29 20:36 | -5.53194 | -47.45769 | 412 ft | 9 kts | 7° |
| 2026-04-29 20:37 | -5.53150 | -47.45747 | 409 ft | 7 kts | 53° |
| 2026-04-29 20:37 | -5.53121 | -47.45708 | 413 ft | 7 kts | 52° |
| 2026-04-29 20:37 | -5.53071 | -47.45708 | 408 ft | 9 kts | 324° |
| 2026-04-29 20:37 | -5.53039 | -47.45731 | 412 ft | 0 kts | 323° |
| 2026-04-29 20:40 | -5.53011 | -47.45754 | 407 ft | 13 kts | 322° |
| 2026-04-29 20:40 | -5.53026 | -47.45850 | 408 ft | 19 kts | 232° |
| 2026-04-29 20:40 | -5.53114 | -47.45970 | 404 ft | 24 kts | 234° |
| 2026-04-29 20:40 | -5.53215 | -47.46115 | 411 ft | 27 kts | 234° |
| 2026-04-29 20:41 | -5.53327 | -47.46271 | 411 ft | 28 kts | 233° |
| 2026-04-29 20:41 | -5.53444 | -47.46430 | 411 ft | 27 kts | 233° |
| 2026-04-29 20:41 | -5.53558 | -47.46565 | 407 ft | 21 kts | 223° |
| 2026-04-29 20:41 | -5.53546 | -47.46574 | 413 ft | 0 kts | 53° |
| 2026-04-29 20:42 | -5.53504 | -47.46515 | 407 ft | 40 kts | 53° |
| 2026-04-29 20:42 | -5.53216 | -47.46131 | 452 ft | 88 kts | 52° |
| 2026-04-29 20:42 | -5.52810 | -47.45588 | 606 ft | 104 kts | 53° |
| 2026-04-29 20:42 | -5.52383 | -47.45021 | 906 ft | 102 kts | 56° |
| 2026-04-29 20:43 | -5.51973 | -47.44435 | 1174 ft | 102 kts | 57° |
| 2026-04-29 20:43 | -5.51555 | -47.43859 | 1391 ft | 102 kts | 56° |
| 2026-04-29 20:43 | -5.51140 | -47.43282 | 1650 ft | 100 kts | 58° |
| 2026-04-29 20:43 | -5.50724 | -47.42715 | 1873 ft | 102 kts | 55° |
| 2026-04-29 20:44 | -5.50098 | -47.42365 | 2127 ft | 111 kts | 14° |
| 2026-04-29 20:44 | -5.49320 | -47.42506 | 2389 ft | 120 kts | 334° |
| 2026-04-29 20:44 | -5.48799 | -47.43156 | 2648 ft | 124 kts | 287° |
| 2026-04-29 20:44 | -5.48771 | -47.44010 | 2930 ft | 123 kts | 263° |
| 2026-04-29 20:45 | -5.48806 | -47.44875 | 3162 ft | 124 kts | 266° |
| 2026-04-29 20:45 | -5.48838 | -47.45743 | 3402 ft | 127 kts | 265° |
| 2026-04-29 20:45 | -5.48873 | -47.46619 | 3771 ft | 124 kts | 264° |
| 2026-04-29 20:45 | -5.48905 | -47.47491 | 4089 ft | 126 kts | 265° |
| 2026-04-29 20:46 | -5.48946 | -47.48373 | 4451 ft | 126 kts | 265° |
| 2026-04-29 20:46 | -5.48984 | -47.49250 | 4808 ft | 126 kts | 265° |
| 2026-04-29 20:46 | -5.49020 | -47.50132 | 5133 ft | 127 kts | 264° |
| 2026-04-29 20:46 | -5.49055 | -47.51004 | 5476 ft | 127 kts | 264° |
| 2026-04-29 20:47 | -5.49093 | -47.51894 | 5828 ft | 128 kts | 264° |
| 2026-04-29 20:47 | -5.49128 | -47.52787 | 6183 ft | 128 kts | 265° |
| 2026-04-29 20:47 | -5.49159 | -47.53685 | 6519 ft | 129 kts | 264° |
| 2026-04-29 20:47 | -5.49203 | -47.54591 | 6847 ft | 131 kts | 264° |
| 2026-04-29 20:48 | -5.49243 | -47.55503 | 7193 ft | 131 kts | 264° |
| 2026-04-29 20:48 | -5.49281 | -47.56423 | 7545 ft | 132 kts | 264° |
| 2026-04-29 20:48 | -5.49319 | -47.57348 | 7893 ft | 133 kts | 264° |
| 2026-04-29 20:48 | -5.49357 | -47.58276 | 8240 ft | 134 kts | 264° |
| 2026-04-29 20:49 | -5.49395 | -47.59214 | 8587 ft | 135 kts | 264° |
| 2026-04-29 20:49 | -5.49434 | -47.60159 | 8953 ft | 136 kts | 265° |
| 2026-04-29 20:49 | -5.49473 | -47.61109 | 9318 ft | 136 kts | 265° |
| 2026-04-29 20:49 | -5.49512 | -47.62067 | 9676 ft | 137 kts | 264° |
| 2026-04-29 20:50 | -5.49553 | -47.63032 | 10002 ft | 139 kts | 264° |
| 2026-04-29 20:50 | -5.49592 | -47.63995 | 10334 ft | 140 kts | 265° |
| 2026-04-29 20:50 | -5.49632 | -47.64981 | 10672 ft | 142 kts | 265° |
| 2026-04-29 20:50 | -5.49674 | -47.65974 | 11008 ft | 144 kts | 265° |
| 2026-04-29 20:51 | -5.49716 | -47.66978 | 11379 ft | 144 kts | 265° |
| 2026-04-29 20:51 | -5.49756 | -47.67987 | 11748 ft | 145 kts | 265° |
| 2026-04-29 20:51 | -5.49803 | -47.69083 | 11833 ft | 170 kts | 265° |
| 2026-04-29 20:51 | -5.49854 | -47.70346 | 11841 ft | 189 kts | 266° |
| 2026-04-29 20:52 | -5.49903 | -47.71694 | 11841 ft | 196 kts | 266° |
| 2026-04-29 20:52 | -5.49961 | -47.73070 | 11838 ft | 203 kts | 265° |
| 2026-04-29 20:52 | -5.50021 | -47.74495 | 11836 ft | 206 kts | 266° |
| 2026-04-29 20:52 | -5.50078 | -47.75944 | 11836 ft | 209 kts | 266° |
| 2026-04-29 20:53 | -5.50140 | -47.77405 | 11840 ft | 211 kts | 266° |
| 2026-04-29 20:53 | -5.50202 | -47.78881 | 11843 ft | 212 kts | 266° |
| 2026-04-29 20:53 | -5.50262 | -47.80368 | 11846 ft | 213 kts | 266° |
| 2026-04-29 20:53 | -5.50322 | -47.81862 | 11849 ft | 215 kts | 266° |
| 2026-04-29 20:54 | -5.50448 | -47.84857 | 11847 ft | 216 kts | 266° |
| 2026-04-29 20:54 | -5.50509 | -47.86370 | 11846 ft | 217 kts | 266° |
| 2026-04-29 20:54 | -5.50572 | -47.87885 | 11845 ft | 218 kts | 266° |
| 2026-04-29 20:55 | -5.50635 | -47.89405 | 11843 ft | 218 kts | 266° |
| 2026-04-29 20:55 | -5.50696 | -47.90927 | 11843 ft | 218 kts | 266° |
| 2026-04-29 20:55 | -5.50759 | -47.92446 | 11842 ft | 218 kts | 266° |
| 2026-04-29 20:55 | -5.50821 | -47.93965 | 11842 ft | 218 kts | 266° |
| 2026-04-29 20:56 | -5.50882 | -47.95484 | 11843 ft | 218 kts | 266° |
| 2026-04-29 20:56 | -5.50943 | -47.97004 | 11843 ft | 218 kts | 266° |
| 2026-04-29 20:56 | -5.51006 | -47.98526 | 11844 ft | 218 kts | 266° |
| 2026-04-29 20:56 | -5.51068 | -48.00048 | 11842 ft | 218 kts | 266° |
| 2026-04-29 20:57 | -5.51130 | -48.01569 | 11840 ft | 218 kts | 266° |
| 2026-04-29 20:57 | -5.51191 | -48.03091 | 11841 ft | 218 kts | 266° |
| 2026-04-29 20:57 | -5.51253 | -48.04609 | 11842 ft | 218 kts | 266° |
| 2026-04-29 20:57 | -5.51314 | -48.06109 | 11843 ft | 218 kts | 266° |
| 2026-04-29 20:58 | -5.51375 | -48.07627 | 11846 ft | 218 kts | 266° |
| 2026-04-29 20:58 | -5.51437 | -48.09147 | 11843 ft | 218 kts | 266° |
| 2026-04-29 20:58 | -5.51497 | -48.10664 | 11844 ft | 217 kts | 266° |
| 2026-04-29 20:58 | -5.51558 | -48.12182 | 11843 ft | 218 kts | 266° |
| 2026-04-29 20:59 | -5.51620 | -48.13698 | 11844 ft | 218 kts | 266° |
| 2026-04-29 20:59 | -5.51682 | -48.15217 | 11840 ft | 218 kts | 266° |
| 2026-04-29 20:59 | -5.51745 | -48.16740 | 11842 ft | 218 kts | 266° |
| 2026-04-29 20:59 | -5.51806 | -48.18260 | 11842 ft | 218 kts | 266° |
| 2026-04-29 21:00 | -5.51867 | -48.19782 | 11840 ft | 218 kts | 266° |
| 2026-04-29 21:00 | -5.51929 | -48.21297 | 11841 ft | 218 kts | 266° |
| 2026-04-29 21:00 | -5.51990 | -48.22816 | 11837 ft | 218 kts | 266° |
| 2026-04-29 21:00 | -5.52050 | -48.24334 | 11839 ft | 218 kts | 266° |
| 2026-04-29 21:01 | -5.52111 | -48.25856 | 11838 ft | 218 kts | 266° |
| 2026-04-29 21:01 | -5.52173 | -48.27377 | 11838 ft | 218 kts | 266° |
| 2026-04-29 21:01 | -5.52233 | -48.28876 | 11840 ft | 218 kts | 266° |
| 2026-04-29 21:01 | -5.52295 | -48.30396 | 11837 ft | 218 kts | 266° |
| 2026-04-29 21:02 | -5.52355 | -48.31915 | 11840 ft | 218 kts | 266° |
| 2026-04-29 21:02 | -5.52416 | -48.33439 | 11838 ft | 218 kts | 266° |
| 2026-04-29 21:02 | -5.52477 | -48.34960 | 11840 ft | 218 kts | 266° |
| 2026-04-29 21:02 | -5.52538 | -48.36482 | 11837 ft | 218 kts | 266° |
| 2026-04-29 21:03 | -5.52599 | -48.38004 | 11833 ft | 218 kts | 266° |
| 2026-04-29 21:03 | -5.52660 | -48.39529 | 11834 ft | 218 kts | 266° |
| 2026-04-29 21:03 | -5.52721 | -48.41052 | 11835 ft | 219 kts | 266° |
| 2026-04-29 21:03 | -5.52837 | -48.42572 | 11834 ft | 218 kts | 256° |
| 2026-04-29 21:04 | -5.53261 | -48.44024 | 11842 ft | 217 kts | 251° |
| 2026-04-29 21:04 | -5.53675 | -48.45480 | 11839 ft | 217 kts | 252° |
| 2026-04-29 21:04 | -5.54075 | -48.46938 | 11841 ft | 217 kts | 252° |
| 2026-04-29 21:04 | -5.54488 | -48.48399 | 11843 ft | 217 kts | 251° |
| 2026-04-29 21:05 | -5.54894 | -48.49835 | 11842 ft | 217 kts | 251° |
| 2026-04-29 21:05 | -5.55304 | -48.51291 | 11843 ft | 217 kts | 252° |
| 2026-04-29 21:05 | -5.55715 | -48.52752 | 11845 ft | 217 kts | 252° |
| 2026-04-29 21:05 | -5.56125 | -48.54210 | 11839 ft | 217 kts | 252° |
| 2026-04-29 21:06 | -5.56537 | -48.55669 | 11845 ft | 217 kts | 252° |
| 2026-04-29 21:06 | -5.56948 | -48.57125 | 11843 ft | 217 kts | 252° |
| 2026-04-29 21:06 | -5.57359 | -48.58584 | 11843 ft | 217 kts | 252° |
| 2026-04-29 21:06 | -5.57769 | -48.60041 | 11842 ft | 217 kts | 252° |
| 2026-04-29 21:07 | -5.58179 | -48.61498 | 11844 ft | 217 kts | 252° |
| 2026-04-29 21:07 | -5.58587 | -48.62956 | 11843 ft | 217 kts | 252° |
| 2026-04-29 21:07 | -5.58992 | -48.64412 | 11843 ft | 217 kts | 252° |
| 2026-04-29 21:07 | -5.59258 | -48.65348 | 11844 ft | 217 kts | 251° |
| 2026-04-29 21:08 | -5.59507 | -48.66210 | 11843 ft | 217 kts | 251° |
| 2026-04-29 21:08 | -5.59725 | -48.66967 | 11842 ft | 217 kts | 251° |
| 2026-04-29 21:08 | -5.60135 | -48.68424 | 11844 ft | 217 kts | 252° |
| 2026-04-29 21:08 | -5.60346 | -48.69185 | 11842 ft | 217 kts | 252° |
| 2026-04-29 21:09 | -5.60455 | -48.69575 | 11842 ft | 217 kts | 252° |
| 2026-04-29 21:09 | -5.60851 | -48.70986 | 11841 ft | 217 kts | 252° |
| 2026-04-29 21:09 | -5.61180 | -48.72152 | 11843 ft | 217 kts | 252° |
| 2026-04-29 21:09 | -5.61498 | -48.73283 | 11842 ft | 217 kts | 252° |
| 2026-04-29 21:10 | -5.61907 | -48.74738 | 11842 ft | 217 kts | 251° |
| 2026-04-29 21:10 | -5.62319 | -48.76200 | 11843 ft | 217 kts | 252° |
| 2026-04-29 21:10 | -5.62728 | -48.77656 | 11843 ft | 217 kts | 252° |
| 2026-04-29 21:10 | -5.63133 | -48.79095 | 11839 ft | 217 kts | 252° |
| 2026-04-29 21:11 | -5.63542 | -48.80550 | 11843 ft | 217 kts | 252° |
| 2026-04-29 21:11 | -5.63952 | -48.82005 | 11841 ft | 217 kts | 252° |
| 2026-04-29 21:11 | -5.64361 | -48.83463 | 11841 ft | 217 kts | 251° |
| 2026-04-29 21:11 | -5.64770 | -48.84916 | 11840 ft | 217 kts | 251° |
| 2026-04-29 21:12 | -5.65182 | -48.86379 | 11842 ft | 217 kts | 252° |
| 2026-04-29 21:12 | -5.65590 | -48.87832 | 11839 ft | 217 kts | 252° |
| 2026-04-29 21:12 | -5.66000 | -48.89291 | 11841 ft | 217 kts | 251° |
| 2026-04-29 21:12 | -5.66409 | -48.90747 | 11840 ft | 217 kts | 251° |
| 2026-04-29 21:13 | -5.66819 | -48.92203 | 11840 ft | 216 kts | 251° |
| 2026-04-29 21:13 | -5.67227 | -48.93657 | 11840 ft | 216 kts | 251° |
| 2026-04-29 21:13 | -5.67635 | -48.95109 | 11841 ft | 216 kts | 251° |
| 2026-04-29 21:13 | -5.68044 | -48.96565 | 11841 ft | 216 kts | 252° |
| 2026-04-29 21:14 | -5.68453 | -48.98020 | 11841 ft | 217 kts | 251° |
| 2026-04-29 21:14 | -5.68793 | -48.99230 | 11840 ft | 216 kts | 252° |
| 2026-04-29 21:14 | -5.69197 | -49.00667 | 11841 ft | 216 kts | 251° |
| 2026-04-29 21:14 | -5.69605 | -49.02120 | 11840 ft | 216 kts | 251° |
| 2026-04-29 21:15 | -5.70014 | -49.03578 | 11839 ft | 216 kts | 251° |
| 2026-04-29 21:15 | -5.70423 | -49.05035 | 11838 ft | 216 kts | 251° |
| 2026-04-29 21:15 | -5.70833 | -49.06494 | 11838 ft | 216 kts | 251° |
| 2026-04-29 21:15 | -5.71241 | -49.07948 | 11839 ft | 216 kts | 251° |
| 2026-04-29 21:16 | -5.71649 | -49.09402 | 11837 ft | 216 kts | 251° |
| 2026-04-29 21:16 | -5.72057 | -49.10853 | 11838 ft | 216 kts | 251° |
| 2026-04-29 21:16 | -5.72460 | -49.12290 | 11837 ft | 216 kts | 251° |
| 2026-04-29 21:16 | -5.72868 | -49.13745 | 11836 ft | 216 kts | 251° |
| 2026-04-29 21:17 | -5.73276 | -49.15199 | 11837 ft | 216 kts | 251° |
| 2026-04-29 21:17 | -5.73685 | -49.16656 | 11838 ft | 216 kts | 251° |
| 2026-04-29 21:17 | -5.74246 | -49.18040 | 11841 ft | 213 kts | 233° |
| 2026-04-29 21:17 | -5.75194 | -49.19164 | 11848 ft | 210 kts | 222° |
| 2026-04-29 21:18 | -5.76178 | -49.20250 | 11848 ft | 210 kts | 224° |
| 2026-04-29 21:18 | -5.77154 | -49.21347 | 11848 ft | 210 kts | 224° |
| 2026-04-29 21:18 | -5.78133 | -49.22440 | 11849 ft | 210 kts | 223° |
| 2026-04-29 21:18 | -5.79114 | -49.23533 | 11850 ft | 210 kts | 223° |
| 2026-04-29 21:19 | -5.80095 | -49.24626 | 11850 ft | 211 kts | 223° |
| 2026-04-29 21:19 | -5.81075 | -49.25717 | 11849 ft | 211 kts | 223° |
| 2026-04-29 21:19 | -5.82056 | -49.26811 | 11848 ft | 210 kts | 223° |
| 2026-04-29 21:19 | -5.83037 | -49.27903 | 11849 ft | 211 kts | 223° |
| 2026-04-29 21:20 | -5.84005 | -49.28982 | 11849 ft | 211 kts | 223° |
| 2026-04-29 21:20 | -5.84986 | -49.30076 | 11847 ft | 211 kts | 223° |
| 2026-04-29 21:20 | -5.85969 | -49.31171 | 11849 ft | 210 kts | 223° |
| 2026-04-29 21:20 | -5.86947 | -49.32262 | 11848 ft | 210 kts | 223° |
| 2026-04-29 21:21 | -5.87929 | -49.33356 | 11850 ft | 210 kts | 223° |
| 2026-04-29 21:21 | -5.88908 | -49.34447 | 11849 ft | 211 kts | 223° |
| 2026-04-29 21:21 | -5.89889 | -49.35541 | 11850 ft | 210 kts | 223° |
| 2026-04-29 21:21 | -5.90871 | -49.36635 | 11850 ft | 211 kts | 223° |
| 2026-04-29 21:22 | -5.91851 | -49.37728 | 11850 ft | 211 kts | 223° |
| 2026-04-29 21:22 | -5.92835 | -49.38826 | 11850 ft | 211 kts | 223° |
| 2026-04-29 21:22 | -5.93817 | -49.39921 | 11850 ft | 211 kts | 223° |
| 2026-04-29 21:22 | -5.94800 | -49.41017 | 11849 ft | 211 kts | 224° |
| 2026-04-29 21:23 | -5.95781 | -49.42110 | 11854 ft | 211 kts | 223° |
| 2026-04-29 21:23 | -5.96765 | -49.43208 | 11853 ft | 211 kts | 223° |
| 2026-04-29 21:23 | -5.97418 | -49.43936 | 11852 ft | 211 kts | 223° |
| 2026-04-29 21:23 | -5.98398 | -49.45030 | 11851 ft | 211 kts | 223° |
| 2026-04-29 21:24 | -5.99381 | -49.46127 | 11852 ft | 211 kts | 223° |
| 2026-04-29 21:24 | -6.00681 | -49.47577 | 11852 ft | 211 kts | 223° |
| 2026-04-29 21:24 | -6.01345 | -49.48317 | 11850 ft | 211 kts | 223° |
| 2026-04-29 21:24 | -6.02323 | -49.49408 | 11851 ft | 211 kts | 223° |
| 2026-04-29 21:25 | -6.03303 | -49.50502 | 11854 ft | 210 kts | 223° |
| 2026-04-29 21:25 | -6.04285 | -49.51597 | 11852 ft | 211 kts | 223° |
| 2026-04-29 21:25 | -6.05264 | -49.52689 | 11852 ft | 211 kts | 224° |
| 2026-04-29 21:25 | -6.06246 | -49.53785 | 11852 ft | 211 kts | 224° |
| 2026-04-29 21:26 | -6.07212 | -49.54864 | 11852 ft | 211 kts | 223° |
| 2026-04-29 21:26 | -6.08192 | -49.55957 | 11854 ft | 211 kts | 224° |
| 2026-04-29 21:26 | -6.09175 | -49.57053 | 11854 ft | 211 kts | 223° |
| 2026-04-29 21:26 | -6.10156 | -49.58150 | 11853 ft | 211 kts | 223° |
| 2026-04-29 21:27 | -6.11138 | -49.59245 | 11852 ft | 211 kts | 223° |
| 2026-04-29 21:27 | -6.12117 | -49.60338 | 11853 ft | 211 kts | 223° |
| 2026-04-29 21:27 | -6.13100 | -49.61436 | 11853 ft | 211 kts | 223° |
| 2026-04-29 21:27 | -6.14081 | -49.62531 | 11851 ft | 211 kts | 224° |
| 2026-04-29 21:28 | -6.15053 | -49.63616 | 11850 ft | 210 kts | 224° |
| 2026-04-29 21:28 | -6.16033 | -49.64710 | 11854 ft | 210 kts | 224° |
| 2026-04-29 21:28 | -6.17004 | -49.65795 | 11855 ft | 211 kts | 224° |
| 2026-04-29 21:28 | -6.17973 | -49.66877 | 11864 ft | 211 kts | 224° |
| 2026-04-29 21:29 | -6.18950 | -49.67967 | 11866 ft | 211 kts | 224° |
| 2026-04-29 21:29 | -6.19932 | -49.69064 | 11871 ft | 211 kts | 224° |
| 2026-04-29 21:29 | -6.20912 | -49.70158 | 11876 ft | 211 kts | 224° |
| 2026-04-29 21:29 | -6.21897 | -49.71259 | 11875 ft | 211 kts | 224° |
| 2026-04-29 21:30 | -6.22881 | -49.72359 | 11880 ft | 211 kts | 223° |
| 2026-04-29 21:30 | -6.23864 | -49.73456 | 11873 ft | 211 kts | 223° |
| 2026-04-29 21:30 | -6.24840 | -49.74547 | 11885 ft | 210 kts | 223° |
| 2026-04-29 21:30 | -6.25820 | -49.75641 | 11886 ft | 210 kts | 223° |
| 2026-04-29 21:31 | -6.26797 | -49.76732 | 11891 ft | 210 kts | 224° |
| 2026-04-29 21:31 | -6.27774 | -49.77824 | 11892 ft | 210 kts | 224° |
| 2026-04-29 21:31 | -6.28752 | -49.78920 | 11892 ft | 210 kts | 223° |
| 2026-04-29 21:31 | -6.29721 | -49.79999 | 11893 ft | 210 kts | 224° |
| 2026-04-29 21:32 | -6.30699 | -49.81093 | 11892 ft | 210 kts | 224° |
| 2026-04-29 21:32 | -6.31677 | -49.82186 | 11896 ft | 211 kts | 223° |
| 2026-04-29 21:32 | -6.32640 | -49.83263 | 11897 ft | 211 kts | 223° |
| 2026-04-29 21:32 | -6.33622 | -49.84360 | 11895 ft | 211 kts | 224° |
| 2026-04-29 21:33 | -6.34608 | -49.85461 | 11894 ft | 212 kts | 224° |
| 2026-04-29 21:33 | -6.35588 | -49.86558 | 11892 ft | 211 kts | 224° |
| 2026-04-29 21:33 | -6.36570 | -49.87656 | 11889 ft | 211 kts | 224° |
| 2026-04-29 21:33 | -6.37553 | -49.88755 | 11889 ft | 211 kts | 224° |
| 2026-04-29 21:34 | -6.38533 | -49.89851 | 11889 ft | 211 kts | 224° |
| 2026-04-29 21:34 | -6.39502 | -49.90935 | 11884 ft | 211 kts | 224° |
| 2026-04-29 21:34 | -6.40481 | -49.92028 | 11884 ft | 211 kts | 224° |
| 2026-04-29 21:34 | -6.41459 | -49.93123 | 11879 ft | 211 kts | 224° |
| 2026-04-29 21:35 | -6.42442 | -49.94222 | 11875 ft | 211 kts | 224° |
| 2026-04-29 21:35 | -6.43421 | -49.95317 | 11872 ft | 210 kts | 224° |
| 2026-04-29 21:35 | -6.44386 | -49.96396 | 11868 ft | 210 kts | 224° |
| 2026-04-29 21:35 | -6.45366 | -49.97492 | 11866 ft | 210 kts | 223° |
| 2026-04-29 21:36 | -6.46341 | -49.98583 | 11863 ft | 210 kts | 224° |
| 2026-04-29 21:36 | -6.47306 | -49.99663 | 11857 ft | 210 kts | 223° |
| 2026-04-29 21:36 | -6.48273 | -50.00745 | 11861 ft | 210 kts | 223° |
| 2026-04-29 21:36 | -6.49240 | -50.01827 | 11859 ft | 210 kts | 223° |
| 2026-04-29 21:37 | -6.50198 | -50.02898 | 11859 ft | 210 kts | 223° |
| 2026-04-29 21:37 | -6.51134 | -50.03946 | 11859 ft | 210 kts | 224° |
| 2026-04-29 21:37 | -6.52079 | -50.05003 | 11858 ft | 210 kts | 224° |
| 2026-04-29 21:37 | -6.53068 | -50.06110 | 11858 ft | 210 kts | 224° |
| 2026-04-29 21:38 | -6.54030 | -50.07187 | 11859 ft | 210 kts | 223° |
| 2026-04-29 21:38 | -6.55005 | -50.08279 | 11858 ft | 210 kts | 224° |
| 2026-04-29 21:38 | -6.55984 | -50.09375 | 11860 ft | 210 kts | 224° |
| 2026-04-29 21:38 | -6.56942 | -50.10447 | 11860 ft | 210 kts | 224° |
| 2026-04-29 21:39 | -6.57900 | -50.11520 | 11857 ft | 210 kts | 224° |
| 2026-04-29 21:39 | -6.58874 | -50.12610 | 11858 ft | 210 kts | 224° |
| 2026-04-29 21:39 | -6.59845 | -50.13697 | 11856 ft | 210 kts | 224° |
| 2026-04-29 21:39 | -6.60826 | -50.14797 | 11858 ft | 210 kts | 224° |
| 2026-04-29 21:40 | -6.61781 | -50.15865 | 11855 ft | 210 kts | 224° |
| 2026-04-29 21:40 | -6.62737 | -50.16936 | 11856 ft | 210 kts | 224° |
| 2026-04-29 21:40 | -6.63713 | -50.18030 | 11857 ft | 210 kts | 224° |
| 2026-04-29 21:40 | -6.64690 | -50.19124 | 11856 ft | 210 kts | 224° |
| 2026-04-29 21:41 | -6.65666 | -50.20217 | 11855 ft | 210 kts | 224° |
| 2026-04-29 21:41 | -6.66640 | -50.21308 | 11856 ft | 209 kts | 224° |
| 2026-04-29 21:41 | -6.67615 | -50.22399 | 11856 ft | 210 kts | 224° |
| 2026-04-29 21:41 | -6.68577 | -50.23476 | 11855 ft | 210 kts | 224° |
| 2026-04-29 21:42 | -6.69529 | -50.24543 | 11856 ft | 210 kts | 224° |
| 2026-04-29 21:42 | -6.70497 | -50.25627 | 11856 ft | 210 kts | 224° |
| 2026-04-29 21:42 | -6.71458 | -50.26705 | 11855 ft | 210 kts | 224° |
| 2026-04-29 21:42 | -6.72339 | -50.27692 | 11858 ft | 210 kts | 224° |
| 2026-04-29 21:43 | -6.73315 | -50.28785 | 11858 ft | 210 kts | 224° |
| 2026-04-29 21:43 | -6.74289 | -50.29877 | 11858 ft | 210 kts | 224° |
| 2026-04-29 21:43 | -6.75265 | -50.30970 | 11860 ft | 210 kts | 224° |
| 2026-04-29 21:43 | -6.76242 | -50.32065 | 11861 ft | 210 kts | 224° |
| 2026-04-29 21:44 | -6.77205 | -50.33143 | 11860 ft | 210 kts | 224° |
| 2026-04-29 21:44 | -6.78181 | -50.34237 | 11860 ft | 210 kts | 224° |
| 2026-04-29 21:44 | -6.79150 | -50.35324 | 11859 ft | 210 kts | 224° |
| 2026-04-29 21:44 | -6.80117 | -50.36407 | 11860 ft | 210 kts | 224° |
| 2026-04-29 21:45 | -6.81066 | -50.37471 | 11857 ft | 210 kts | 224° |
| 2026-04-29 21:45 | -6.82032 | -50.38554 | 11861 ft | 210 kts | 224° |
| 2026-04-29 21:45 | -6.83008 | -50.39649 | 11858 ft | 210 kts | 224° |
| 2026-04-29 21:45 | -6.83985 | -50.40744 | 11861 ft | 210 kts | 224° |
| 2026-04-29 21:46 | -6.84962 | -50.41840 | 11860 ft | 210 kts | 224° |
| 2026-04-29 21:46 | -6.85938 | -50.42934 | 11859 ft | 210 kts | 224° |
| 2026-04-29 21:46 | -6.86915 | -50.44030 | 11860 ft | 210 kts | 224° |
| 2026-04-29 21:46 | -6.87892 | -50.45126 | 11858 ft | 210 kts | 224° |
| 2026-04-29 21:47 | -6.88867 | -50.46220 | 11859 ft | 210 kts | 224° |
| 2026-04-29 21:47 | -6.89831 | -50.47301 | 11857 ft | 210 kts | 224° |
| 2026-04-29 21:47 | -6.90808 | -50.48397 | 11857 ft | 210 kts | 224° |
| 2026-04-29 21:47 | -6.91784 | -50.49491 | 11858 ft | 210 kts | 224° |
| 2026-04-29 21:48 | -6.92759 | -50.50585 | 11861 ft | 210 kts | 224° |
| 2026-04-29 21:48 | -6.93737 | -50.51683 | 11862 ft | 210 kts | 224° |
| 2026-04-29 21:48 | -6.94713 | -50.52778 | 11863 ft | 210 kts | 224° |
| 2026-04-29 21:48 | -6.95690 | -50.53874 | 11862 ft | 210 kts | 224° |
| 2026-04-29 21:49 | -6.96668 | -50.54971 | 11861 ft | 210 kts | 224° |
| 2026-04-29 21:49 | -6.97647 | -50.56071 | 11860 ft | 210 kts | 224° |
| 2026-04-29 21:49 | -6.98625 | -50.57168 | 11864 ft | 210 kts | 224° |
| 2026-04-29 21:49 | -6.99591 | -50.58252 | 11859 ft | 210 kts | 224° |
| 2026-04-29 21:50 | -7.00581 | -50.59363 | 11860 ft | 210 kts | 224° |
| 2026-04-29 21:50 | -7.01547 | -50.60447 | 11862 ft | 210 kts | 224° |
| 2026-04-29 21:50 | -7.02526 | -50.61547 | 11863 ft | 210 kts | 224° |
| 2026-04-29 21:50 | -7.03502 | -50.62643 | 11861 ft | 210 kts | 224° |
| 2026-04-29 21:51 | -7.04481 | -50.63743 | 11862 ft | 211 kts | 224° |
| 2026-04-29 21:51 | -7.05462 | -50.64842 | 11862 ft | 211 kts | 224° |
| 2026-04-29 21:51 | -7.07421 | -50.67043 | 11863 ft | 211 kts | 224° |
| 2026-04-29 21:52 | -7.08388 | -50.68129 | 11860 ft | 211 kts | 224° |
| 2026-04-29 21:52 | -7.09368 | -50.69230 | 11861 ft | 210 kts | 224° |
| 2026-04-29 21:52 | -7.10344 | -50.70327 | 11860 ft | 210 kts | 224° |
| 2026-04-29 21:52 | -7.11320 | -50.71423 | 11860 ft | 210 kts | 224° |
| 2026-04-29 21:53 | -7.12296 | -50.72520 | 11861 ft | 210 kts | 224° |
| 2026-04-29 21:53 | -7.13270 | -50.73613 | 11863 ft | 210 kts | 224° |
| 2026-04-29 21:53 | -7.14246 | -50.74710 | 11862 ft | 210 kts | 224° |
| 2026-04-29 21:53 | -7.15220 | -50.75805 | 11861 ft | 210 kts | 224° |
| 2026-04-29 21:54 | -7.16192 | -50.76897 | 11862 ft | 210 kts | 224° |
| 2026-04-29 21:54 | -7.17167 | -50.77994 | 11861 ft | 210 kts | 224° |
| 2026-04-29 21:54 | -7.18139 | -50.79088 | 11863 ft | 210 kts | 225° |
| 2026-04-29 21:54 | -7.19100 | -50.80167 | 11863 ft | 210 kts | 224° |
| 2026-04-29 21:55 | -7.20069 | -50.81263 | 11860 ft | 210 kts | 224° |
| 2026-04-29 21:55 | -7.21044 | -50.82360 | 11861 ft | 209 kts | 224° |
| 2026-04-29 21:55 | -7.22012 | -50.83451 | 11867 ft | 209 kts | 224° |
| 2026-04-29 21:55 | -7.22991 | -50.84541 | 11866 ft | 209 kts | 224° |
| 2026-04-29 21:56 | -7.23964 | -50.85634 | 11866 ft | 210 kts | 225° |
| 2026-04-29 21:56 | -7.24935 | -50.86731 | 11868 ft | 210 kts | 224° |
| 2026-04-29 21:56 | -7.25905 | -50.87824 | 11865 ft | 210 kts | 224° |
| 2026-04-29 21:56 | -7.26880 | -50.88921 | 11867 ft | 210 kts | 224° |
| 2026-04-29 21:57 | -7.27853 | -50.90018 | 11864 ft | 210 kts | 224° |
| 2026-04-29 21:57 | -7.28827 | -50.91114 | 11859 ft | 210 kts | 224° |
| 2026-04-29 21:57 | -7.29800 | -50.92209 | 11859 ft | 210 kts | 225° |
| 2026-04-29 21:57 | -7.30771 | -50.93303 | 11861 ft | 210 kts | 224° |
| 2026-04-29 21:58 | -7.31733 | -50.94385 | 11862 ft | 210 kts | 224° |
| 2026-04-29 21:58 | -7.32704 | -50.95479 | 11861 ft | 210 kts | 224° |
| 2026-04-29 21:58 | -7.33679 | -50.96576 | 11862 ft | 210 kts | 225° |
| 2026-04-29 21:58 | -7.34655 | -50.97677 | 11861 ft | 210 kts | 224° |
| 2026-04-29 21:59 | -7.35629 | -50.98773 | 11862 ft | 210 kts | 225° |
| 2026-04-29 21:59 | -7.36604 | -50.99871 | 11859 ft | 210 kts | 225° |
| 2026-04-29 21:59 | -7.37576 | -51.00966 | 11858 ft | 210 kts | 225° |
| 2026-04-29 21:59 | -7.38548 | -51.02060 | 11855 ft | 210 kts | 225° |
| 2026-04-29 22:00 | -7.39522 | -51.03157 | 11858 ft | 210 kts | 224° |
| 2026-04-29 22:00 | -7.40495 | -51.04252 | 11859 ft | 210 kts | 225° |
| 2026-04-29 22:00 | -7.41469 | -51.05351 | 11856 ft | 210 kts | 224° |
| 2026-04-29 22:00 | -7.42441 | -51.06449 | 11854 ft | 210 kts | 225° |
| 2026-04-29 22:01 | -7.43417 | -51.07545 | 11858 ft | 210 kts | 224° |
| 2026-04-29 22:01 | -7.44393 | -51.08637 | 11854 ft | 210 kts | 224° |
| 2026-04-29 22:01 | -7.45367 | -51.09735 | 11854 ft | 210 kts | 225° |
| 2026-04-29 22:01 | -7.46325 | -51.10816 | 11856 ft | 209 kts | 225° |
| 2026-04-29 22:02 | -7.47299 | -51.11914 | 11857 ft | 210 kts | 225° |
| 2026-04-29 22:02 | -7.48274 | -51.13011 | 11854 ft | 210 kts | 225° |
| 2026-04-29 22:02 | -7.49248 | -51.14109 | 11853 ft | 210 kts | 225° |
| 2026-04-29 22:02 | -7.50220 | -51.15206 | 11848 ft | 210 kts | 225° |
| 2026-04-29 22:03 | -7.51191 | -51.16303 | 11855 ft | 209 kts | 225° |
| 2026-04-29 22:03 | -7.52162 | -51.17399 | 11856 ft | 210 kts | 224° |
| 2026-04-29 22:03 | -7.53141 | -51.18493 | 11853 ft | 210 kts | 224° |
| 2026-04-29 22:03 | -7.54114 | -51.19589 | 11855 ft | 210 kts | 225° |
| 2026-04-29 22:04 | -7.55086 | -51.20688 | 11862 ft | 210 kts | 225° |
| 2026-04-29 22:04 | -7.56064 | -51.21790 | 11859 ft | 210 kts | 225° |
| 2026-04-29 22:04 | -7.57025 | -51.22874 | 11860 ft | 211 kts | 225° |
| 2026-04-29 22:04 | -7.58002 | -51.23975 | 11858 ft | 210 kts | 225° |
| 2026-04-29 22:05 | -7.58978 | -51.25075 | 11858 ft | 210 kts | 225° |
| 2026-04-29 22:05 | -7.59954 | -51.26176 | 11860 ft | 210 kts | 225° |
| 2026-04-29 22:05 | -7.61906 | -51.28377 | 11857 ft | 210 kts | 225° |
| 2026-04-29 22:06 | -7.62880 | -51.29476 | 11857 ft | 210 kts | 225° |
| 2026-04-29 22:06 | -7.63853 | -51.30574 | 11855 ft | 210 kts | 225° |
| 2026-04-29 22:06 | -7.64824 | -51.31669 | 11855 ft | 210 kts | 225° |
| 2026-04-29 22:06 | -7.65796 | -51.32766 | 11858 ft | 210 kts | 225° |
| 2026-04-29 22:07 | -7.66769 | -51.33864 | 11854 ft | 210 kts | 225° |
| 2026-04-29 22:07 | -7.67743 | -51.34962 | 11851 ft | 210 kts | 225° |
| 2026-04-29 22:07 | -7.68713 | -51.36058 | 11858 ft | 210 kts | 225° |
| 2026-04-29 22:07 | -7.69674 | -51.37142 | 11857 ft | 210 kts | 225° |
| 2026-04-29 22:08 | -7.70644 | -51.38237 | 11855 ft | 209 kts | 225° |
| 2026-04-29 22:08 | -7.71614 | -51.39332 | 11851 ft | 209 kts | 225° |
| 2026-04-29 22:08 | -7.72580 | -51.40424 | 11857 ft | 209 kts | 225° |
| 2026-04-29 22:08 | -7.73544 | -51.41522 | 11854 ft | 209 kts | 225° |
| 2026-04-29 22:09 | -7.74518 | -51.42612 | 11858 ft | 209 kts | 225° |
| 2026-04-29 22:09 | -7.75492 | -51.43705 | 11857 ft | 210 kts | 225° |
| 2026-04-29 22:09 | -7.76463 | -51.44802 | 11856 ft | 210 kts | 225° |
| 2026-04-29 22:09 | -7.77434 | -51.45900 | 11859 ft | 210 kts | 225° |
| 2026-04-29 22:10 | -7.78407 | -51.47000 | 11858 ft | 210 kts | 225° |
| 2026-04-29 22:10 | -7.79382 | -51.48101 | 11863 ft | 210 kts | 225° |
| 2026-04-29 22:10 | -7.80356 | -51.49202 | 11862 ft | 210 kts | 225° |
| 2026-04-29 22:10 | -7.81330 | -51.50303 | 11860 ft | 210 kts | 225° |
| 2026-04-29 22:11 | -7.82307 | -51.51406 | 11861 ft | 210 kts | 225° |
| 2026-04-29 22:11 | -7.83280 | -51.52506 | 11862 ft | 210 kts | 225° |
| 2026-04-29 22:11 | -7.84253 | -51.53606 | 11861 ft | 210 kts | 225° |
| 2026-04-29 22:11 | -7.85212 | -51.54689 | 11860 ft | 210 kts | 225° |
| 2026-04-29 22:12 | -7.86185 | -51.55789 | 11858 ft | 210 kts | 225° |
| 2026-04-29 22:12 | -7.87160 | -51.56890 | 11860 ft | 210 kts | 225° |
| 2026-04-29 22:12 | -7.88107 | -51.57961 | 11859 ft | 210 kts | 225° |
| 2026-04-29 22:12 | -7.89071 | -51.59051 | 11858 ft | 210 kts | 225° |
| 2026-04-29 22:13 | -7.90041 | -51.60146 | 11859 ft | 209 kts | 225° |
| 2026-04-29 22:13 | -7.91011 | -51.61244 | 11860 ft | 209 kts | 225° |
| 2026-04-29 22:13 | -7.91984 | -51.62344 | 11862 ft | 210 kts | 225° |
| 2026-04-29 22:13 | -7.92957 | -51.63444 | 11861 ft | 210 kts | 225° |
| 2026-04-29 22:14 | -7.93598 | -51.64168 | 11862 ft | 209 kts | 225° |
| 2026-04-29 22:14 | -7.94567 | -51.65264 | 11866 ft | 209 kts | 225° |
| 2026-04-29 22:14 | -7.95539 | -51.66362 | 11867 ft | 210 kts | 225° |
| 2026-04-29 22:14 | -7.96512 | -51.67463 | 11867 ft | 210 kts | 225° |
| 2026-04-29 22:15 | -7.97481 | -51.68560 | 11866 ft | 209 kts | 225° |
| 2026-04-29 22:15 | -7.98449 | -51.69654 | 11865 ft | 209 kts | 225° |
| 2026-04-29 22:15 | -7.99418 | -51.70751 | 11866 ft | 209 kts | 225° |
| 2026-04-29 22:15 | -8.00376 | -51.71834 | 11865 ft | 209 kts | 225° |
| 2026-04-29 22:16 | -8.01336 | -51.72921 | 11868 ft | 209 kts | 225° |
| 2026-04-29 22:16 | -8.02285 | -51.73995 | 11865 ft | 209 kts | 225° |
| 2026-04-29 22:16 | -8.03257 | -51.75094 | 11868 ft | 210 kts | 225° |
| 2026-04-29 22:16 | -8.04061 | -51.76003 | 11867 ft | 210 kts | 225° |
| 2026-04-29 22:17 | -8.05005 | -51.77074 | 11865 ft | 210 kts | 225° |
| 2026-04-29 22:17 | -8.05883 | -51.78073 | 11869 ft | 210 kts | 225° |
| 2026-04-29 22:17 | -8.06858 | -51.79173 | 11868 ft | 210 kts | 225° |
| 2026-04-29 22:17 | -8.07824 | -51.80257 | 11867 ft | 210 kts | 225° |
| 2026-04-29 22:18 | -8.08782 | -51.81346 | 11866 ft | 210 kts | 225° |
| 2026-04-29 22:18 | -8.09747 | -51.82446 | 11869 ft | 209 kts | 225° |
| 2026-04-29 22:18 | -8.10716 | -51.83543 | 11869 ft | 209 kts | 225° |
| 2026-04-29 22:18 | -8.11687 | -51.84640 | 11868 ft | 209 kts | 225° |
| 2026-04-29 22:19 | -8.12657 | -51.85733 | 11870 ft | 209 kts | 225° |
| 2026-04-29 22:19 | -8.13627 | -51.86830 | 11871 ft | 209 kts | 225° |
| 2026-04-29 22:19 | -8.14595 | -51.87927 | 11870 ft | 209 kts | 225° |
| 2026-04-29 22:19 | -8.15561 | -51.89023 | 11873 ft | 209 kts | 225° |
| 2026-04-29 22:20 | -8.16531 | -51.90120 | 11874 ft | 209 kts | 225° |
| 2026-04-29 22:20 | -8.17489 | -51.91206 | 11873 ft | 209 kts | 225° |
| 2026-04-29 22:20 | -8.18445 | -51.92289 | 11872 ft | 209 kts | 225° |
| 2026-04-29 22:20 | -8.19424 | -51.93398 | 11873 ft | 209 kts | 225° |
| 2026-04-29 22:21 | -8.20378 | -51.94479 | 11872 ft | 209 kts | 225° |
| 2026-04-29 22:21 | -8.21338 | -51.95566 | 11872 ft | 209 kts | 225° |
| 2026-04-29 22:21 | -8.22289 | -51.96643 | 11871 ft | 209 kts | 225° |
| 2026-04-29 22:21 | -8.23256 | -51.97739 | 11872 ft | 209 kts | 225° |
| 2026-04-29 22:22 | -8.24222 | -51.98833 | 11872 ft | 209 kts | 225° |
| 2026-04-29 22:22 | -8.25190 | -51.99930 | 11869 ft | 209 kts | 225° |
| 2026-04-29 22:22 | -8.26157 | -52.01025 | 11871 ft | 209 kts | 225° |
| 2026-04-29 22:22 | -8.27121 | -52.02118 | 11870 ft | 208 kts | 225° |
| 2026-04-29 22:23 | -8.28088 | -52.03213 | 11870 ft | 208 kts | 225° |
| 2026-04-29 22:23 | -8.29051 | -52.04305 | 11869 ft | 208 kts | 225° |
| 2026-04-29 22:23 | -8.30016 | -52.05399 | 11869 ft | 208 kts | 225° |
| 2026-04-29 22:23 | -8.30964 | -52.06473 | 11868 ft | 208 kts | 225° |
| 2026-04-29 22:24 | -8.31904 | -52.07540 | 11872 ft | 208 kts | 225° |
| 2026-04-29 22:24 | -8.32869 | -52.08634 | 11872 ft | 208 kts | 225° |
| 2026-04-29 22:24 | -8.33835 | -52.09729 | 11873 ft | 209 kts | 225° |
| 2026-04-29 22:24 | -8.34801 | -52.10825 | 11872 ft | 209 kts | 225° |
| 2026-04-29 22:25 | -8.35767 | -52.11920 | 11871 ft | 209 kts | 225° |
| 2026-04-29 22:25 | -8.36735 | -52.13018 | 11870 ft | 209 kts | 225° |
| 2026-04-29 22:25 | -8.37702 | -52.14114 | 11869 ft | 209 kts | 225° |
| 2026-04-29 22:25 | -8.38668 | -52.15210 | 11868 ft | 209 kts | 225° |
| 2026-04-29 22:26 | -8.39632 | -52.16305 | 11868 ft | 208 kts | 225° |
| 2026-04-29 22:26 | -8.40288 | -52.17048 | 11871 ft | 208 kts | 225° |
| 2026-04-29 22:27 | -8.40931 | -52.17778 | 11873 ft | 208 kts | 225° |
| 2026-04-29 22:27 | -8.41881 | -52.18856 | 11868 ft | 208 kts | 225° |
| 2026-04-29 22:27 | -8.42832 | -52.19935 | 11869 ft | 208 kts | 225° |
| 2026-04-29 22:27 | -8.43795 | -52.21030 | 11874 ft | 207 kts | 225° |
| 2026-04-29 22:28 | -8.44756 | -52.22118 | 11873 ft | 208 kts | 225° |
| 2026-04-29 22:28 | -8.45716 | -52.23209 | 11870 ft | 208 kts | 226° |
| 2026-04-29 22:28 | -8.46679 | -52.24303 | 11871 ft | 209 kts | 225° |
| 2026-04-29 22:28 | -8.47642 | -52.25399 | 11869 ft | 208 kts | 226° |
| 2026-04-29 22:29 | -8.48608 | -52.26495 | 11871 ft | 209 kts | 225° |
| 2026-04-29 22:29 | -8.49571 | -52.27594 | 11868 ft | 209 kts | 226° |
| 2026-04-29 22:29 | -8.50536 | -52.28689 | 11871 ft | 209 kts | 225° |
| 2026-04-29 22:29 | -8.51503 | -52.29787 | 11871 ft | 209 kts | 226° |
| 2026-04-29 22:30 | -8.52449 | -52.30875 | 11864 ft | 208 kts | 226° |
| 2026-04-29 22:30 | -8.53414 | -52.31966 | 11868 ft | 208 kts | 225° |
| 2026-04-29 22:30 | -8.54383 | -52.33054 | 11867 ft | 208 kts | 225° |
| 2026-04-29 22:30 | -8.55347 | -52.34150 | 11867 ft | 208 kts | 226° |
| 2026-04-29 22:31 | -8.56307 | -52.35246 | 11870 ft | 208 kts | 226° |
| 2026-04-29 22:31 | -8.57268 | -52.36340 | 11869 ft | 208 kts | 226° |
| 2026-04-29 22:31 | -8.58228 | -52.37432 | 11869 ft | 208 kts | 225° |
| 2026-04-29 22:31 | -8.59189 | -52.38524 | 11870 ft | 208 kts | 225° |
| 2026-04-29 22:32 | -8.60139 | -52.39603 | 11869 ft | 208 kts | 225° |
| 2026-04-29 22:32 | -8.61100 | -52.40696 | 11869 ft | 208 kts | 225° |
| 2026-04-29 22:32 | -8.62060 | -52.41788 | 11867 ft | 208 kts | 225° |
| 2026-04-29 22:32 | -8.63021 | -52.42880 | 11866 ft | 208 kts | 225° |
| 2026-04-29 22:33 | -8.63981 | -52.43971 | 11865 ft | 208 kts | 226° |
| 2026-04-29 22:33 | -8.64941 | -52.45062 | 11866 ft | 208 kts | 225° |
| 2026-04-29 22:33 | -8.65902 | -52.46155 | 11868 ft | 208 kts | 225° |
| 2026-04-29 22:33 | -8.66866 | -52.47252 | 11868 ft | 208 kts | 225° |
| 2026-04-29 22:34 | -8.67815 | -52.48331 | 11864 ft | 208 kts | 225° |
| 2026-04-29 22:34 | -8.68775 | -52.49422 | 11864 ft | 208 kts | 225° |
| 2026-04-29 22:34 | -8.69717 | -52.50494 | 11867 ft | 208 kts | 225° |
| 2026-04-29 22:34 | -8.70675 | -52.51584 | 11865 ft | 207 kts | 225° |
| 2026-04-29 22:35 | -8.71623 | -52.52662 | 11866 ft | 207 kts | 225° |
| 2026-04-29 22:35 | -8.72585 | -52.53757 | 11866 ft | 207 kts | 225° |
| 2026-04-29 22:35 | -8.73543 | -52.54846 | 11866 ft | 207 kts | 225° |
| 2026-04-29 22:35 | -8.74496 | -52.55930 | 11866 ft | 207 kts | 226° |
| 2026-04-29 22:36 | -8.75455 | -52.57022 | 11864 ft | 207 kts | 226° |
| 2026-04-29 22:36 | -8.76414 | -52.58113 | 11862 ft | 207 kts | 226° |
| 2026-04-29 22:36 | -8.77358 | -52.59187 | 11865 ft | 207 kts | 226° |
| 2026-04-29 22:36 | -8.78324 | -52.60288 | 11870 ft | 207 kts | 225° |
| 2026-04-29 22:37 | -8.79282 | -52.61378 | 11869 ft | 207 kts | 225° |
| 2026-04-29 22:37 | -8.80239 | -52.62466 | 11863 ft | 207 kts | 226° |
| 2026-04-29 22:37 | -8.81193 | -52.63553 | 11864 ft | 207 kts | 226° |
| 2026-04-29 22:37 | -8.82140 | -52.64632 | 11868 ft | 207 kts | 225° |
| 2026-04-29 22:38 | -8.83097 | -52.65721 | 11871 ft | 207 kts | 225° |
| 2026-04-29 22:38 | -8.84056 | -52.66813 | 11871 ft | 207 kts | 225° |
| 2026-04-29 22:38 | -8.85014 | -52.67904 | 11870 ft | 207 kts | 225° |
| 2026-04-29 22:38 | -8.85972 | -52.68996 | 11870 ft | 207 kts | 226° |
| 2026-04-29 22:39 | -8.86930 | -52.70087 | 11869 ft | 207 kts | 226° |
| 2026-04-29 22:39 | -8.87886 | -52.71175 | 11869 ft | 207 kts | 225° |
| 2026-04-29 22:39 | -8.88843 | -52.72265 | 11868 ft | 207 kts | 226° |
| 2026-04-29 22:39 | -8.89799 | -52.73355 | 11866 ft | 207 kts | 226° |
| 2026-04-29 22:40 | -8.90757 | -52.74446 | 11868 ft | 207 kts | 225° |
| 2026-04-29 22:40 | -8.91715 | -52.75538 | 11866 ft | 207 kts | 226° |
| 2026-04-29 22:40 | -8.92661 | -52.76616 | 11871 ft | 207 kts | 226° |
| 2026-04-29 22:40 | -8.93617 | -52.77707 | 11870 ft | 207 kts | 226° |
| 2026-04-29 22:41 | -8.94575 | -52.78798 | 11873 ft | 207 kts | 226° |
| 2026-04-29 22:41 | -8.95526 | -52.79883 | 11872 ft | 207 kts | 225° |
| 2026-04-29 22:41 | -8.96473 | -52.80962 | 11870 ft | 208 kts | 226° |
| 2026-04-29 22:41 | -8.97428 | -52.82062 | 11871 ft | 208 kts | 226° |
| 2026-04-29 22:42 | -8.98390 | -52.83155 | 11873 ft | 207 kts | 225° |
| 2026-04-29 22:42 | -8.99352 | -52.84239 | 11874 ft | 207 kts | 225° |
| 2026-04-29 22:42 | -9.00311 | -52.85332 | 11873 ft | 207 kts | 226° |
| 2026-04-29 22:42 | -9.01267 | -52.86425 | 11874 ft | 207 kts | 226° |
| 2026-04-29 22:43 | -9.02224 | -52.87519 | 11875 ft | 207 kts | 226° |
| 2026-04-29 22:43 | -9.03181 | -52.88611 | 11875 ft | 207 kts | 226° |
| 2026-04-29 22:43 | -9.04139 | -52.89703 | 11869 ft | 207 kts | 225° |
| 2026-04-29 22:43 | -9.05094 | -52.90794 | 11876 ft | 207 kts | 225° |
| 2026-04-29 22:44 | -9.06051 | -52.91887 | 11874 ft | 207 kts | 225° |
| 2026-04-29 22:44 | -9.07006 | -52.92976 | 11870 ft | 207 kts | 225° |
| 2026-04-29 22:44 | -9.07950 | -52.94054 | 11880 ft | 207 kts | 225° |
| 2026-04-29 22:44 | -9.08907 | -52.95147 | 11878 ft | 207 kts | 226° |
| 2026-04-29 22:45 | -9.09866 | -52.96242 | 11879 ft | 207 kts | 226° |
| 2026-04-29 22:45 | -9.10821 | -52.97333 | 11881 ft | 207 kts | 226° |
| 2026-04-29 22:45 | -9.11777 | -52.98425 | 11877 ft | 207 kts | 226° |
| 2026-04-29 22:45 | -9.12733 | -52.99517 | 11880 ft | 207 kts | 226° |
| 2026-04-29 22:46 | -9.13688 | -53.00608 | 11879 ft | 207 kts | 226° |
| 2026-04-29 22:46 | -9.14644 | -53.01701 | 11878 ft | 207 kts | 226° |
| 2026-04-29 22:46 | -9.15592 | -53.02786 | 11879 ft | 207 kts | 226° |
| 2026-04-29 22:46 | -9.16562 | -53.03894 | 11878 ft | 207 kts | 226° |
| 2026-04-29 22:47 | -9.17517 | -53.04985 | 11878 ft | 207 kts | 226° |
| 2026-04-29 22:47 | -9.18474 | -53.06079 | 11877 ft | 207 kts | 226° |
| 2026-04-29 22:47 | -9.19431 | -53.07173 | 11876 ft | 207 kts | 226° |
| 2026-04-29 22:47 | -9.20385 | -53.08265 | 11877 ft | 207 kts | 226° |
| 2026-04-29 22:48 | -9.21326 | -53.09340 | 11877 ft | 207 kts | 226° |
| 2026-04-29 22:48 | -9.22285 | -53.10437 | 11877 ft | 207 kts | 226° |
| 2026-04-29 22:48 | -9.23241 | -53.11530 | 11875 ft | 207 kts | 226° |
| 2026-04-29 22:48 | -9.24195 | -53.12622 | 11871 ft | 207 kts | 226° |
| 2026-04-29 22:49 | -9.25149 | -53.13713 | 11877 ft | 207 kts | 226° |
| 2026-04-29 22:49 | -9.26105 | -53.14807 | 11878 ft | 207 kts | 226° |
| 2026-04-29 22:49 | -9.27059 | -53.15898 | 11876 ft | 207 kts | 226° |
| 2026-04-29 22:49 | -9.28013 | -53.16990 | 11878 ft | 207 kts | 226° |
| 2026-04-29 22:50 | -9.28968 | -53.18082 | 11880 ft | 207 kts | 226° |
| 2026-04-29 22:50 | -9.29922 | -53.19174 | 11879 ft | 207 kts | 226° |
| 2026-04-29 22:50 | -9.30875 | -53.20266 | 11879 ft | 207 kts | 226° |
| 2026-04-29 22:50 | -9.31829 | -53.21357 | 11878 ft | 207 kts | 226° |
| 2026-04-29 22:51 | -9.32771 | -53.22435 | 11879 ft | 207 kts | 226° |
| 2026-04-29 22:51 | -9.33736 | -53.23540 | 11878 ft | 207 kts | 226° |
| 2026-04-29 22:51 | -9.35629 | -53.25708 | 11880 ft | 207 kts | 226° |
| 2026-04-29 22:52 | -9.36582 | -53.26799 | 11875 ft | 207 kts | 226° |
| 2026-04-29 22:52 | -9.37535 | -53.27890 | 11873 ft | 207 kts | 226° |
| 2026-04-29 22:52 | -9.38489 | -53.28983 | 11870 ft | 207 kts | 226° |
| 2026-04-29 22:52 | -9.39441 | -53.30074 | 11876 ft | 207 kts | 226° |
| 2026-04-29 22:53 | -9.40385 | -53.31155 | 11870 ft | 207 kts | 226° |
| 2026-04-29 22:53 | -9.41333 | -53.32241 | 11870 ft | 207 kts | 226° |
| 2026-04-29 22:53 | -9.42287 | -53.33334 | 11874 ft | 207 kts | 226° |
| 2026-04-29 22:53 | -9.43239 | -53.34426 | 11875 ft | 207 kts | 226° |
| 2026-04-29 22:54 | -9.44173 | -53.35496 | 11872 ft | 207 kts | 226° |
| 2026-04-29 22:54 | -9.45127 | -53.36590 | 11877 ft | 207 kts | 226° |
| 2026-04-29 22:54 | -9.46079 | -53.37683 | 11873 ft | 207 kts | 226° |
| 2026-04-29 22:54 | -9.47034 | -53.38776 | 11878 ft | 207 kts | 226° |
| 2026-04-29 22:55 | -9.47988 | -53.39870 | 11879 ft | 207 kts | 226° |
| 2026-04-29 22:55 | -9.48939 | -53.40960 | 11878 ft | 207 kts | 226° |
| 2026-04-29 22:55 | -9.49895 | -53.42056 | 11872 ft | 207 kts | 226° |
| 2026-04-29 22:55 | -9.50846 | -53.43147 | 11878 ft | 207 kts | 226° |
| 2026-04-29 22:56 | -9.51799 | -53.44239 | 11877 ft | 207 kts | 226° |
| 2026-04-29 22:56 | -9.52752 | -53.45332 | 11876 ft | 207 kts | 226° |
| 2026-04-29 22:56 | -9.53707 | -53.46429 | 11876 ft | 207 kts | 226° |
| 2026-04-29 22:56 | -9.54645 | -53.47505 | 11881 ft | 207 kts | 226° |
| 2026-04-29 22:57 | -9.55611 | -53.48605 | 11881 ft | 210 kts | 226° |
| 2026-04-29 22:57 | -9.56586 | -53.49720 | 11885 ft | 212 kts | 226° |
| 2026-04-29 22:57 | -9.57565 | -53.50846 | 11888 ft | 214 kts | 226° |
| 2026-04-29 22:57 | -9.58553 | -53.51981 | 11882 ft | 214 kts | 226° |
| 2026-04-29 22:58 | -9.59528 | -53.53100 | 11892 ft | 214 kts | 226° |
| 2026-04-29 22:58 | -9.60515 | -53.54232 | 11891 ft | 214 kts | 226° |
| 2026-04-29 22:58 | -9.61489 | -53.55349 | 11893 ft | 214 kts | 226° |
| 2026-04-29 22:58 | -9.62143 | -53.56099 | 11892 ft | 214 kts | 226° |
| 2026-04-29 22:59 | -9.63447 | -53.57595 | 11893 ft | 214 kts | 226° |
| 2026-04-29 22:59 | -9.64112 | -53.58358 | 11893 ft | 214 kts | 226° |
| 2026-04-29 22:59 | -9.65414 | -53.59854 | 11894 ft | 214 kts | 226° |
| 2026-04-29 22:59 | -9.66398 | -53.60983 | 11893 ft | 214 kts | 226° |
| 2026-04-29 23:00 | -9.67382 | -53.62112 | 11891 ft | 214 kts | 226° |
| 2026-04-29 23:00 | -9.68034 | -53.62859 | 11892 ft | 214 kts | 226° |
| 2026-04-29 23:00 | -9.69019 | -53.63989 | 11885 ft | 214 kts | 226° |
| 2026-04-29 23:00 | -9.70003 | -53.65119 | 11886 ft | 214 kts | 226° |
| 2026-04-29 23:01 | -9.70988 | -53.66250 | 11879 ft | 214 kts | 226° |
| 2026-04-29 23:01 | -9.71973 | -53.67381 | 11890 ft | 214 kts | 226° |
| 2026-04-29 23:01 | -9.72959 | -53.68513 | 11885 ft | 214 kts | 226° |
| 2026-04-29 23:01 | -9.73944 | -53.69644 | 11891 ft | 214 kts | 226° |
| 2026-04-29 23:02 | -9.74930 | -53.70776 | 11890 ft | 214 kts | 226° |
| 2026-04-29 23:02 | -9.75915 | -53.71907 | 11890 ft | 214 kts | 226° |
| 2026-04-29 23:02 | -9.76903 | -53.73042 | 11889 ft | 214 kts | 226° |
| 2026-04-29 23:02 | -9.77887 | -53.74173 | 11888 ft | 214 kts | 226° |
| 2026-04-29 23:03 | -9.78872 | -53.75304 | 11883 ft | 214 kts | 226° |
| 2026-04-29 23:03 | -9.79861 | -53.76441 | 11885 ft | 214 kts | 226° |
| 2026-04-29 23:03 | -9.80847 | -53.77574 | 11884 ft | 214 kts | 226° |
| 2026-04-29 23:03 | -9.81830 | -53.78705 | 11886 ft | 214 kts | 226° |
| 2026-04-29 23:04 | -9.82797 | -53.79822 | 11887 ft | 213 kts | 226° |
| 2026-04-29 23:04 | -9.83798 | -53.80964 | 11888 ft | 214 kts | 226° |
| 2026-04-29 23:04 | -9.84770 | -53.82079 | 11888 ft | 214 kts | 226° |
| 2026-04-29 23:04 | -9.85753 | -53.83211 | 11888 ft | 214 kts | 226° |
| 2026-04-29 23:05 | -9.86739 | -53.84346 | 11888 ft | 214 kts | 226° |
| 2026-04-29 23:05 | -9.87725 | -53.85480 | 11888 ft | 214 kts | 226° |
| 2026-04-29 23:05 | -9.88708 | -53.86612 | 11889 ft | 214 kts | 226° |
| 2026-04-29 23:05 | -9.89695 | -53.87748 | 11890 ft | 214 kts | 226° |
| 2026-04-29 23:06 | -9.90684 | -53.88886 | 11883 ft | 214 kts | 226° |
| 2026-04-29 23:06 | -9.91671 | -53.90022 | 11886 ft | 214 kts | 226° |
| 2026-04-29 23:06 | -9.92643 | -53.91141 | 11889 ft | 214 kts | 226° |
| 2026-04-29 23:06 | -9.93641 | -53.92291 | 11891 ft | 214 kts | 226° |
| 2026-04-29 23:07 | -9.94615 | -53.93412 | 11889 ft | 214 kts | 226° |
| 2026-04-29 23:07 | -9.95600 | -53.94547 | 11892 ft | 214 kts | 226° |
| 2026-04-29 23:07 | -9.96587 | -53.95683 | 11885 ft | 215 kts | 226° |
| 2026-04-29 23:07 | -9.97574 | -53.96820 | 11894 ft | 215 kts | 226° |
| 2026-04-29 23:08 | -9.98560 | -53.97956 | 11890 ft | 214 kts | 226° |
| 2026-04-29 23:08 | -9.99548 | -53.99094 | 11889 ft | 214 kts | 226° |
| 2026-04-29 23:08 | -10.00532 | -54.00228 | 11892 ft | 214 kts | 226° |
| 2026-04-29 23:08 | -10.01514 | -54.01360 | 11888 ft | 214 kts | 226° |
| 2026-04-29 23:09 | -10.02503 | -54.02499 | 11889 ft | 214 kts | 226° |
| 2026-04-29 23:09 | -10.03490 | -54.03636 | 11891 ft | 214 kts | 226° |
| 2026-04-29 23:09 | -10.04450 | -54.04742 | 11881 ft | 214 kts | 226° |
| 2026-04-29 23:09 | -10.05429 | -54.05869 | 11887 ft | 215 kts | 226° |
| 2026-04-29 23:10 | -10.06406 | -54.06996 | 11878 ft | 215 kts | 226° |
| 2026-04-29 23:10 | -10.07394 | -54.08136 | 11891 ft | 215 kts | 226° |
| 2026-04-29 23:10 | -10.08369 | -54.09262 | 11891 ft | 213 kts | 226° |
| 2026-04-29 23:10 | -10.09319 | -54.10360 | 11883 ft | 211 kts | 226° |
| 2026-04-29 23:11 | -10.10277 | -54.11463 | 11887 ft | 210 kts | 226° |
| 2026-04-29 23:11 | -10.11220 | -54.12549 | 11887 ft | 208 kts | 226° |
| 2026-04-29 23:11 | -10.12166 | -54.13640 | 11886 ft | 208 kts | 226° |
| 2026-04-29 23:11 | -10.13122 | -54.14744 | 11886 ft | 208 kts | 226° |
| 2026-04-29 23:12 | -10.14079 | -54.15846 | 11888 ft | 208 kts | 226° |
| 2026-04-29 23:12 | -10.15033 | -54.16946 | 11881 ft | 207 kts | 226° |
| 2026-04-29 23:12 | -10.15978 | -54.18036 | 11887 ft | 207 kts | 226° |
| 2026-04-29 23:12 | -10.16921 | -54.19125 | 11889 ft | 207 kts | 226° |
| 2026-04-29 23:13 | -10.17871 | -54.20221 | 11890 ft | 207 kts | 226° |
| 2026-04-29 23:13 | -10.18823 | -54.21320 | 11890 ft | 207 kts | 226° |
| 2026-04-29 23:13 | -10.19763 | -54.22404 | 11892 ft | 207 kts | 226° |
| 2026-04-29 23:13 | -10.20727 | -54.23515 | 11891 ft | 207 kts | 226° |
| 2026-04-29 23:14 | -10.21665 | -54.24598 | 11890 ft | 207 kts | 226° |
| 2026-04-29 23:14 | -10.22616 | -54.25697 | 11892 ft | 207 kts | 226° |
| 2026-04-29 23:14 | -10.23568 | -54.26795 | 11882 ft | 207 kts | 226° |
| 2026-04-29 23:14 | -10.24517 | -54.27891 | 11892 ft | 207 kts | 226° |
| 2026-04-29 23:15 | -10.25469 | -54.28990 | 11879 ft | 207 kts | 226° |
| 2026-04-29 23:15 | -10.26422 | -54.30090 | 11889 ft | 207 kts | 226° |
| 2026-04-29 23:15 | -10.27372 | -54.31188 | 11890 ft | 207 kts | 226° |
| 2026-04-29 23:15 | -10.28322 | -54.32285 | 11883 ft | 207 kts | 226° |
| 2026-04-29 23:16 | -10.29273 | -54.33384 | 11890 ft | 207 kts | 226° |
| 2026-04-29 23:16 | -10.30222 | -54.34481 | 11886 ft | 207 kts | 226° |
| 2026-04-29 23:16 | -10.31173 | -54.35579 | 11890 ft | 207 kts | 226° |
| 2026-04-29 23:16 | -10.32123 | -54.36677 | 11885 ft | 207 kts | 226° |
| 2026-04-29 23:17 | -10.33076 | -54.37778 | 11891 ft | 207 kts | 226° |
| 2026-04-29 23:17 | -10.34028 | -54.38878 | 11890 ft | 208 kts | 226° |
| 2026-04-29 23:17 | -10.34981 | -54.39980 | 11889 ft | 208 kts | 226° |
| 2026-04-29 23:17 | -10.35935 | -54.41083 | 11890 ft | 208 kts | 226° |
| 2026-04-29 23:18 | -10.36887 | -54.42189 | 11889 ft | 208 kts | 226° |
| 2026-04-29 23:18 | -10.37829 | -54.43275 | 11885 ft | 208 kts | 226° |
| 2026-04-29 23:18 | -10.38786 | -54.44375 | 11887 ft | 208 kts | 226° |
| 2026-04-29 23:18 | -10.39738 | -54.45477 | 11883 ft | 207 kts | 226° |
| 2026-04-29 23:19 | -10.40689 | -54.46579 | 11891 ft | 207 kts | 226° |
| 2026-04-29 23:19 | -10.41640 | -54.47679 | 11891 ft | 207 kts | 226° |
| 2026-04-29 23:19 | -10.42595 | -54.48784 | 11890 ft | 208 kts | 226° |
| 2026-04-29 23:19 | -10.43549 | -54.49888 | 11890 ft | 208 kts | 226° |
| 2026-04-29 23:20 | -10.44502 | -54.50991 | 11882 ft | 208 kts | 226° |
| 2026-04-29 23:20 | -10.45455 | -54.52093 | 11885 ft | 208 kts | 226° |
| 2026-04-29 23:20 | -10.46407 | -54.53195 | 11881 ft | 208 kts | 226° |
| 2026-04-29 23:20 | -10.47360 | -54.54299 | 11889 ft | 208 kts | 226° |
| 2026-04-29 23:21 | -10.48315 | -54.55404 | 11888 ft | 208 kts | 226° |
| 2026-04-29 23:21 | -10.49268 | -54.56506 | 11881 ft | 208 kts | 226° |
| 2026-04-29 23:21 | -10.50221 | -54.57610 | 11887 ft | 208 kts | 226° |
| 2026-04-29 23:21 | -10.51175 | -54.58715 | 11887 ft | 208 kts | 226° |
| 2026-04-29 23:22 | -10.52131 | -54.59822 | 11885 ft | 208 kts | 226° |
| 2026-04-29 23:22 | -10.53075 | -54.60914 | 11886 ft | 208 kts | 226° |
| 2026-04-29 23:22 | -10.54028 | -54.62018 | 11884 ft | 208 kts | 226° |
| 2026-04-29 23:22 | -10.54982 | -54.63124 | 11886 ft | 208 kts | 226° |
| 2026-04-29 23:23 | -10.55936 | -54.64228 | 11888 ft | 208 kts | 226° |
| 2026-04-29 23:23 | -10.56888 | -54.65331 | 11888 ft | 208 kts | 226° |
| 2026-04-29 23:23 | -10.57846 | -54.66441 | 11887 ft | 208 kts | 226° |
| 2026-04-29 23:23 | -10.58799 | -54.67546 | 11887 ft | 208 kts | 226° |
| 2026-04-29 23:24 | -10.59752 | -54.68650 | 11889 ft | 208 kts | 226° |
| 2026-04-29 23:24 | -10.60705 | -54.69755 | 11887 ft | 208 kts | 226° |
| 2026-04-29 23:24 | -10.61645 | -54.70844 | 11882 ft | 208 kts | 226° |
| 2026-04-29 23:24 | -10.62598 | -54.71949 | 11890 ft | 208 kts | 226° |
| 2026-04-29 23:25 | -10.63552 | -54.73055 | 11882 ft | 208 kts | 226° |
| 2026-04-29 23:25 | -10.64505 | -54.74160 | 11882 ft | 208 kts | 226° |
| 2026-04-29 23:25 | -10.65456 | -54.75263 | 11885 ft | 207 kts | 226° |
| 2026-04-29 23:25 | -10.66397 | -54.76354 | 11887 ft | 207 kts | 226° |
| 2026-04-29 23:26 | -10.67339 | -54.77446 | 11888 ft | 207 kts | 226° |
| 2026-04-29 23:26 | -10.68266 | -54.78522 | 11889 ft | 208 kts | 226° |
| 2026-04-29 23:26 | -10.69219 | -54.79627 | 11891 ft | 208 kts | 226° |
| 2026-04-29 23:26 | -10.70171 | -54.80733 | 11890 ft | 208 kts | 226° |
| 2026-04-29 23:27 | -10.71123 | -54.81838 | 11888 ft | 208 kts | 226° |
| 2026-04-29 23:27 | -10.72075 | -54.82942 | 11889 ft | 208 kts | 226° |
| 2026-04-29 23:27 | -10.73029 | -54.84048 | 11890 ft | 208 kts | 226° |
| 2026-04-29 23:27 | -10.73982 | -54.85154 | 11889 ft | 208 kts | 226° |
| 2026-04-29 23:28 | -10.74934 | -54.86259 | 11889 ft | 208 kts | 226° |
| 2026-04-29 23:28 | -10.75887 | -54.87366 | 11889 ft | 208 kts | 226° |
| 2026-04-29 23:28 | -10.76824 | -54.88453 | 11890 ft | 207 kts | 226° |
| 2026-04-29 23:28 | -10.77777 | -54.89560 | 11894 ft | 208 kts | 226° |
| 2026-04-29 23:29 | -10.78727 | -54.90664 | 11891 ft | 207 kts | 226° |
| 2026-04-29 23:29 | -10.79679 | -54.91770 | 11890 ft | 208 kts | 226° |
| 2026-04-29 23:29 | -10.80631 | -54.92875 | 11891 ft | 207 kts | 226° |
| 2026-04-29 23:29 | -10.81582 | -54.93980 | 11887 ft | 208 kts | 226° |
| 2026-04-29 23:30 | -10.82533 | -54.95085 | 11894 ft | 208 kts | 226° |
| 2026-04-29 23:30 | -10.83485 | -54.96192 | 11894 ft | 208 kts | 226° |
| 2026-04-29 23:30 | -10.84438 | -54.97299 | 11893 ft | 208 kts | 226° |
| 2026-04-29 23:30 | -10.85391 | -54.98407 | 11891 ft | 208 kts | 226° |
| 2026-04-29 23:31 | -10.86342 | -54.99513 | 11890 ft | 208 kts | 226° |
| 2026-04-29 23:31 | -10.87293 | -55.00618 | 11884 ft | 208 kts | 226° |
| 2026-04-29 23:31 | -10.88231 | -55.01708 | 11891 ft | 207 kts | 226° |
| 2026-04-29 23:31 | -10.89192 | -55.02826 | 11889 ft | 207 kts | 226° |
| 2026-04-29 23:32 | -10.90130 | -55.03917 | 11890 ft | 207 kts | 226° |
| 2026-04-29 23:32 | -10.91082 | -55.05023 | 11885 ft | 207 kts | 226° |
| 2026-04-29 23:32 | -10.92030 | -55.06126 | 11889 ft | 207 kts | 226° |
| 2026-04-29 23:32 | -10.92972 | -55.07222 | 11889 ft | 207 kts | 226° |
| 2026-04-29 23:33 | -10.93904 | -55.08308 | 11892 ft | 207 kts | 226° |
| 2026-04-29 23:33 | -10.94839 | -55.09396 | 11889 ft | 207 kts | 226° |
| 2026-04-29 23:33 | -10.95796 | -55.10509 | 11893 ft | 208 kts | 226° |
| 2026-04-29 23:33 | -10.96747 | -55.11616 | 11894 ft | 208 kts | 226° |
| 2026-04-29 23:34 | -10.97693 | -55.12717 | 11892 ft | 208 kts | 226° |
| 2026-04-29 23:34 | -10.98635 | -55.13814 | 11889 ft | 208 kts | 226° |
| 2026-04-29 23:34 | -10.99587 | -55.14922 | 11884 ft | 208 kts | 226° |
| 2026-04-29 23:34 | -11.00540 | -55.16031 | 11898 ft | 208 kts | 226° |
| 2026-04-29 23:35 | -11.01490 | -55.17139 | 11895 ft | 208 kts | 226° |
| 2026-04-29 23:35 | -11.02433 | -55.18236 | 11894 ft | 208 kts | 226° |
| 2026-04-29 23:35 | -11.03385 | -55.19344 | 11895 ft | 208 kts | 226° |
| 2026-04-29 23:35 | -11.04335 | -55.20452 | 11894 ft | 208 kts | 226° |
| 2026-04-29 23:36 | -11.05288 | -55.21562 | 11892 ft | 207 kts | 226° |
| 2026-04-29 23:36 | -11.06236 | -55.22667 | 11892 ft | 208 kts | 226° |
| 2026-04-29 23:36 | -11.07189 | -55.23777 | 11891 ft | 208 kts | 226° |
| 2026-04-29 23:36 | -11.08139 | -55.24885 | 11889 ft | 208 kts | 226° |
| 2026-04-29 23:37 | -11.09091 | -55.25993 | 11884 ft | 208 kts | 226° |
| 2026-04-29 23:37 | -11.10041 | -55.27102 | 11885 ft | 208 kts | 226° |
| 2026-04-29 23:37 | -11.10993 | -55.28210 | 11888 ft | 208 kts | 226° |
| 2026-04-29 23:37 | -11.11945 | -55.29321 | 11891 ft | 208 kts | 226° |
| 2026-04-29 23:38 | -11.12883 | -55.30415 | 11893 ft | 208 kts | 226° |
| 2026-04-29 23:38 | -11.13834 | -55.31524 | 11890 ft | 208 kts | 226° |
| 2026-04-29 23:38 | -11.14787 | -55.32635 | 11890 ft | 208 kts | 226° |
| 2026-04-29 23:38 | -11.15730 | -55.33736 | 11891 ft | 208 kts | 226° |
| 2026-04-29 23:39 | -11.16662 | -55.34823 | 11890 ft | 208 kts | 226° |
| 2026-04-29 23:39 | -11.17577 | -55.35890 | 11893 ft | 208 kts | 226° |
| 2026-04-29 23:39 | -11.18529 | -55.37002 | 11890 ft | 208 kts | 226° |
| 2026-04-29 23:39 | -11.19469 | -55.38098 | 11891 ft | 208 kts | 226° |
| 2026-04-29 23:40 | -11.20424 | -55.39212 | 11894 ft | 208 kts | 226° |
| 2026-04-29 23:40 | -11.21374 | -55.40321 | 11890 ft | 208 kts | 226° |
| 2026-04-29 23:40 | -11.22326 | -55.41432 | 11890 ft | 208 kts | 226° |
| 2026-04-29 23:40 | -11.23279 | -55.42545 | 11889 ft | 208 kts | 226° |
| 2026-04-29 23:41 | -11.24219 | -55.43644 | 11892 ft | 208 kts | 226° |
| 2026-04-29 23:41 | -11.25171 | -55.44756 | 11891 ft | 208 kts | 226° |
| 2026-04-29 23:41 | -11.26121 | -55.45865 | 11888 ft | 208 kts | 226° |
| 2026-04-29 23:41 | -11.27075 | -55.46976 | 11887 ft | 208 kts | 226° |
| 2026-04-29 23:42 | -11.28027 | -55.48089 | 11884 ft | 208 kts | 226° |
| 2026-04-29 23:42 | -11.28978 | -55.49200 | 11887 ft | 208 kts | 226° |
| 2026-04-29 23:42 | -11.29932 | -55.50312 | 11890 ft | 208 kts | 226° |
| 2026-04-29 23:42 | -11.30867 | -55.51403 | 11890 ft | 208 kts | 226° |
| 2026-04-29 23:43 | -11.31867 | -55.52459 | 11888 ft | 206 kts | 214° |
| 2026-04-29 23:43 | -11.33133 | -55.53095 | 11892 ft | 202 kts | 193° |
| 2026-04-29 23:43 | -11.34494 | -55.53300 | 11904 ft | 200 kts | 181° |
| 2026-04-29 23:43 | -11.35898 | -55.53430 | 11907 ft | 200 kts | 182° |
| 2026-04-29 23:44 | -11.37263 | -55.53573 | 11902 ft | 200 kts | 182° |
| 2026-04-29 23:44 | -11.38654 | -55.53713 | 11903 ft | 200 kts | 182° |
| 2026-04-29 23:44 | -11.40042 | -55.53849 | 11909 ft | 200 kts | 182° |
| 2026-04-29 23:44 | -11.41427 | -55.53984 | 11909 ft | 200 kts | 182° |
| 2026-04-29 23:45 | -11.42815 | -55.54121 | 11910 ft | 200 kts | 182° |
| 2026-04-29 23:45 | -11.44187 | -55.54254 | 11898 ft | 200 kts | 182° |
| 2026-04-29 23:45 | -11.45573 | -55.54391 | 11909 ft | 200 kts | 182° |
| 2026-04-29 23:45 | -11.46898 | -55.54522 | 11901 ft | 200 kts | 182° |
| 2026-04-29 23:46 | -11.48285 | -55.54660 | 11907 ft | 200 kts | 182° |
| 2026-04-29 23:46 | -11.49634 | -55.54793 | 11908 ft | 200 kts | 182° |
| 2026-04-29 23:46 | -11.50993 | -55.54926 | 11906 ft | 200 kts | 182° |
| 2026-04-29 23:46 | -11.52383 | -55.55062 | 11897 ft | 200 kts | 182° |
| 2026-04-29 23:47 | -11.53768 | -55.55199 | 11908 ft | 200 kts | 182° |
| 2026-04-29 23:47 | -11.55156 | -55.55335 | 11906 ft | 200 kts | 182° |
| 2026-04-29 23:47 | -11.56535 | -55.55472 | 11902 ft | 200 kts | 182° |
| 2026-04-29 23:47 | -11.57923 | -55.55609 | 11906 ft | 200 kts | 182° |
| 2026-04-29 23:48 | -11.59309 | -55.55745 | 11900 ft | 200 kts | 182° |
| 2026-04-29 23:48 | -11.60697 | -55.55882 | 11906 ft | 200 kts | 182° |
| 2026-04-29 23:48 | -11.62069 | -55.56018 | 11907 ft | 201 kts | 182° |
| 2026-04-29 23:48 | -11.63459 | -55.56154 | 11907 ft | 201 kts | 182° |
| 2026-04-29 23:49 | -11.64849 | -55.56291 | 11906 ft | 201 kts | 182° |
| 2026-04-29 23:49 | -11.66242 | -55.56428 | 11909 ft | 201 kts | 182° |
| 2026-04-29 23:49 | -11.67619 | -55.56563 | 11908 ft | 201 kts | 182° |
| 2026-04-29 23:49 | -11.68998 | -55.56699 | 11908 ft | 201 kts | 182° |
| 2026-04-29 23:50 | -11.70358 | -55.56833 | 11908 ft | 201 kts | 182° |
| 2026-04-29 23:50 | -11.71266 | -55.56923 | 11908 ft | 201 kts | 182° |
| 2026-04-29 23:50 | -11.74538 | -55.56698 | 11492 ft | 213 kts | 167° |
| 2026-04-29 23:51 | -11.76037 | -55.56502 | 11183 ft | 220 kts | 171° |
| 2026-04-29 23:51 | -11.77565 | -55.56371 | 10866 ft | 216 kts | 173° |
| 2026-04-29 23:51 | -11.79032 | -55.56251 | 10552 ft | 208 kts | 172° |
| 2026-04-29 23:51 | -11.79993 | -55.56150 | 10351 ft | 204 kts | 171° |
| 2026-04-29 23:52 | -11.81373 | -55.56000 | 10066 ft | 200 kts | 171° |
| 2026-04-29 23:52 | -11.82753 | -55.55859 | 9774 ft | 198 kts | 171° |
| 2026-04-29 23:52 | -11.84110 | -55.55720 | 9487 ft | 194 kts | 171° |
| 2026-04-29 23:52 | -11.85441 | -55.55586 | 9225 ft | 190 kts | 171° |
| 2026-04-29 23:53 | -11.86753 | -55.55453 | 8966 ft | 188 kts | 171° |
| 2026-04-29 23:53 | -11.88054 | -55.55321 | 8696 ft | 187 kts | 171° |
| 2026-04-29 23:53 | -11.89331 | -55.55193 | 8434 ft | 186 kts | 171° |
| 2026-04-29 23:53 | -11.90602 | -55.55064 | 8171 ft | 185 kts | 171° |
| 2026-04-29 23:54 | -11.91883 | -55.54936 | 7909 ft | 185 kts | 171° |
| 2026-04-29 23:54 | -11.93157 | -55.54807 | 7647 ft | 184 kts | 171° |
| 2026-04-29 23:54 | -11.94432 | -55.54679 | 7383 ft | 184 kts | 171° |
| 2026-04-29 23:54 | -11.95703 | -55.54551 | 7118 ft | 183 kts | 171° |
| 2026-04-29 23:55 | -11.96969 | -55.54423 | 6855 ft | 183 kts | 171° |
| 2026-04-29 23:55 | -11.98233 | -55.54296 | 6590 ft | 183 kts | 171° |
| 2026-04-29 23:55 | -11.99498 | -55.54168 | 6325 ft | 182 kts | 171° |
| 2026-04-29 23:55 | -12.00754 | -55.54042 | 6061 ft | 181 kts | 171° |
| 2026-04-29 23:56 | -12.01999 | -55.53916 | 5809 ft | 179 kts | 171° |
| 2026-04-29 23:56 | -12.03236 | -55.53791 | 5552 ft | 177 kts | 172° |
| 2026-04-29 23:56 | -12.04446 | -55.53855 | 5304 ft | 174 kts | 192° |
| 2026-04-29 23:56 | -12.05514 | -55.54362 | 5060 ft | 171 kts | 213° |
| 2026-04-29 23:57 | -12.06317 | -55.55211 | 4993 ft | 157 kts | 234° |
| 2026-04-29 23:57 | -12.06750 | -55.56163 | 4988 ft | 143 kts | 253° |
| 2026-04-29 23:57 | -12.06874 | -55.57123 | 4981 ft | 132 kts | 270° |
| 2026-04-29 23:57 | -12.06770 | -55.58059 | 4857 ft | 132 kts | 283° |
| 2026-04-29 23:58 | -12.06498 | -55.58955 | 4738 ft | 133 kts | 288° |
| 2026-04-29 23:58 | -12.06249 | -55.59862 | 4617 ft | 133 kts | 283° |
| 2026-04-29 23:58 | -12.06052 | -55.60789 | 4505 ft | 132 kts | 282° |
| 2026-04-29 23:58 | -12.05802 | -55.61685 | 4399 ft | 130 kts | 292° |
| 2026-04-29 23:59 | -12.05276 | -55.62421 | 4253 ft | 130 kts | 327° |
| 2026-04-29 23:59 | -12.04432 | -55.62700 | 4044 ft | 128 kts | 2° |
| 2026-04-29 23:59 | -12.03556 | -55.62609 | 3889 ft | 127 kts | 11° |
| 2026-04-29 23:59 | -12.02697 | -55.62478 | 3756 ft | 125 kts | 12° |
| 2026-04-30 00:00 | -12.01851 | -55.62328 | 3601 ft | 122 kts | 14° |
| 2026-04-30 00:00 | -12.01032 | -55.62140 | 3434 ft | 120 kts | 17° |
| 2026-04-30 00:00 | -12.00230 | -55.61943 | 3285 ft | 117 kts | 15° |
| 2026-04-30 00:00 | -11.99442 | -55.61757 | 3138 ft | 116 kts | 18° |
| 2026-04-30 00:01 | -11.98705 | -55.61556 | 3059 ft | 106 kts | 19° |
| 2026-04-30 00:01 | -11.97996 | -55.61360 | 2913 ft | 105 kts | 20° |
| 2026-04-30 00:01 | -11.97304 | -55.61155 | 2789 ft | 102 kts | 20° |
| 2026-04-30 00:01 | -11.96628 | -55.60918 | 2639 ft | 103 kts | 25° |
| 2026-04-30 00:02 | -11.95959 | -55.60674 | 2501 ft | 103 kts | 20° |
| 2026-04-30 00:02 | -11.95260 | -55.60511 | 2377 ft | 101 kts | 17° |
| 2026-04-30 00:02 | -11.94583 | -55.60323 | 2245 ft | 100 kts | 19° |
| 2026-04-30 00:02 | -11.93923 | -55.60125 | 2134 ft | 100 kts | 19° |
| 2026-04-30 00:03 | -11.93242 | -55.59942 | 2009 ft | 99 kts | 18° |
| 2026-04-30 00:03 | -11.92582 | -55.59754 | 1896 ft | 98 kts | 19° |
| 2026-04-30 00:03 | -11.91915 | -55.59580 | 1813 ft | 99 kts | 16° |
| 2026-04-30 00:03 | -11.91240 | -55.59409 | 1696 ft | 100 kts | 17° |
| 2026-04-30 00:04 | -11.90639 | -55.59241 | 1574 ft | 86 kts | 18° |
| 2026-04-30 00:04 | -11.90070 | -55.59067 | 1440 ft | 83 kts | 20° |
| 2026-04-30 00:04 | -11.89523 | -55.58911 | 1340 ft | 82 kts | 17° |
| 2026-04-30 00:04 | -11.89003 | -55.58770 | 1290 ft | 68 kts | 17° |
| 2026-04-30 00:05 | -11.88624 | -55.58668 | 1285 ft | 48 kts | 15° |
| 2026-04-30 00:05 | -11.88342 | -55.58590 | 1285 ft | 25 kts | 16° |